sensor_id;sensor_type;location;lat;lon;timestamp;pressure;altitude;pressure_sealevel;temperature;humidity
10587;BME280;5341;47.606;7.576;2024-01-06T00:02:08;97633.00;;;9.28;71.28
10587;BME280;5341;47.606;7.576;2024-01-06T00:04:35;97631.34;;;9.27;71.45
10587;BME280;5341;47.606;7.576;2024-01-06T00:07:03;97641.00;;;9.28;71.52
10587;BME280;5341;47.606;7.576;2024-01-06T00:09:31;97635.66;;;9.28;71.55
10587;BME280;5341;47.606;7.576;2024-01-06T00:11:58;97639.34;;;9.27;71.54
10587;BME280;5341;47.606;7.576;2024-01-06T00:14:29;97641.00;;;9.28;71.63
10587;BME280;5341;47.606;7.576;2024-01-06T00:16:56;97648.16;;;9.27;71.15
10587;BME280;5341;47.606;7.576;2024-01-06T00:19:24;97661.50;;;9.27;71.50
10587;BME280;5341;47.606;7.576;2024-01-06T00:21:51;97657.19;;;9.26;71.34
10587;BME280;5341;47.606;7.576;2024-01-06T00:24:19;97662.53;;;9.26;71.25
10587;BME280;5341;47.606;7.576;2024-01-06T00:26:47;97667.88;;;9.26;71.74
10587;BME280;5341;47.606;7.576;2024-01-06T00:29:15;97674.03;;;9.27;71.47
10587;BME280;5341;47.606;7.576;2024-01-06T00:31:45;97668.69;;;9.27;71.54
10587;BME280;5341;47.606;7.576;2024-01-06T00:34:13;97676.69;;;9.27;71.80
10587;BME280;5341;47.606;7.576;2024-01-06T00:36:41;97678.53;;;9.26;71.37
10587;BME280;5341;47.606;7.576;2024-01-06T00:39:09;97675.88;;;9.26;71.57
10587;BME280;5341;47.606;7.576;2024-01-06T00:41:37;97687.38;;;9.27;71.45
10587;BME280;5341;47.606;7.576;2024-01-06T00:44:04;97696.19;;;9.27;71.14
10587;BME280;5341;47.606;7.576;2024-01-06T00:46:32;97696.19;;;9.27;71.63
10587;BME280;5341;47.606;7.576;2024-01-06T00:49:01;97692.50;;;9.28;71.74
10587;BME280;5341;47.606;7.576;2024-01-06T00:51:30;97697.00;;;9.28;71.54
10587;BME280;5341;47.606;7.576;2024-01-06T00:53:58;97702.34;;;9.28;71.69
10587;BME280;5341;47.606;7.576;2024-01-06T00:56:26;97699.69;;;9.28;71.76
10587;BME280;5341;47.606;7.576;2024-01-06T00:58:55;97698.84;;;9.27;71.70
10587;BME280;5341;47.606;7.576;2024-01-06T01:01:22;97708.72;;;9.27;71.73
10587;BME280;5341;47.606;7.576;2024-01-06T01:03:50;97712.41;;;9.26;71.82
10587;BME280;5341;47.606;7.576;2024-01-06T01:06:19;97715.69;;;9.28;71.80
10587;BME280;5341;47.606;7.576;2024-01-06T01:08:49;97719.38;;;9.27;71.41
10587;BME280;5341;47.606;7.576;2024-01-06T01:11:18;97726.56;;;9.26;71.44
10587;BME280;5341;47.606;7.576;2024-01-06T01:13:46;97718.75;;;9.25;71.41
10587;BME280;5341;47.606;7.576;2024-01-06T01:16:14;97717.94;;;9.24;71.74
10587;BME280;5341;47.606;7.576;2024-01-06T01:18:43;97721.63;;;9.23;71.25
10587;BME280;5341;47.606;7.576;2024-01-06T01:21:11;97720.81;;;9.23;71.63
10587;BME280;5341;47.606;7.576;2024-01-06T01:23:40;97720.81;;;9.23;71.49
10587;BME280;5341;47.606;7.576;2024-01-06T01:26:08;97722.84;;;9.21;71.32
10587;BME280;5341;47.606;7.576;2024-01-06T01:28:35;97733.53;;;9.21;71.79
10587;BME280;5341;47.606;7.576;2024-01-06T01:31:03;97734.34;;;9.21;71.62
10587;BME280;5341;47.606;7.576;2024-01-06T01:33:30;97732.66;;;9.20;71.58
10587;BME280;5341;47.606;7.576;2024-01-06T01:35:58;97737.19;;;9.20;71.45
10587;BME280;5341;47.606;7.576;2024-01-06T01:38:26;97738.00;;;9.20;71.19
10587;BME280;5341;47.606;7.576;2024-01-06T01:40:58;97740.66;;;9.20;71.43
10587;BME280;5341;47.606;7.576;2024-01-06T01:43:26;97743.34;;;9.20;71.78
10587;BME280;5341;47.606;7.576;2024-01-06T01:45:56;97754.00;;;9.20;71.35
10587;BME280;5341;47.606;7.576;2024-01-06T01:48:25;97752.38;;;9.19;71.33
10587;BME280;5341;47.606;7.576;2024-01-06T01:50:53;97741.69;;;9.19;71.77
10587;BME280;5341;47.606;7.576;2024-01-06T01:53:22;97747.84;;;9.20;71.46
10587;BME280;5341;47.606;7.576;2024-01-06T01:55:52;97750.72;;;9.18;71.67
10587;BME280;5341;47.606;7.576;2024-01-06T01:58:22;97753.38;;;9.18;71.53
10587;BME280;5341;47.606;7.576;2024-01-06T02:00:50;97766.72;;;9.18;71.74
10587;BME280;5341;47.606;7.576;2024-01-06T02:03:19;97761.38;;;9.18;71.55
10587;BME280;5341;47.606;7.576;2024-01-06T02:05:47;97770.22;;;9.19;71.67
10587;BME280;5341;47.606;7.576;2024-01-06T02:08:15;97775.75;;;9.17;71.37
10587;BME280;5341;47.606;7.576;2024-01-06T02:10:43;97771.25;;;9.18;71.40
10587;BME280;5341;47.606;7.576;2024-01-06T02:13:11;97771.44;;;9.16;71.27
10587;BME280;5341;47.606;7.576;2024-01-06T02:15:41;97780.25;;;9.17;71.56
10587;BME280;5341;47.606;7.576;2024-01-06T02:18:09;97790.94;;;9.17;71.63
10587;BME280;5341;47.606;7.576;2024-01-06T02:20:37;97783.13;;;9.15;71.82
10587;BME280;5341;47.606;7.576;2024-01-06T02:23:06;97778.81;;;9.14;71.73
10587;BME280;5341;47.606;7.576;2024-01-06T02:25:34;97785.38;;;9.12;71.72
10587;BME280;5341;47.606;7.576;2024-01-06T02:28:02;97794.59;;;9.09;71.69
10587;BME280;5341;47.606;7.576;2024-01-06T02:30:30;97784.50;;;9.04;72.12
10587;BME280;5341;47.606;7.576;2024-01-06T02:32:57;97792.09;;;9.01;71.59
10587;BME280;5341;47.606;7.576;2024-01-06T02:35:26;97789.00;;;8.97;72.08
10587;BME280;5341;47.606;7.576;2024-01-06T02:37:53;97792.03;;;8.94;72.23
10587;BME280;5341;47.606;7.576;2024-01-06T02:40:22;97787.09;;;8.91;72.13
10587;BME280;5341;47.606;7.576;2024-01-06T02:42:50;97797.13;;;8.89;72.28
10587;BME280;5341;47.606;7.576;2024-01-06T02:45:17;97797.72;;;8.85;72.37
10587;BME280;5341;47.606;7.576;2024-01-06T02:47:44;97790.72;;;8.84;72.40
10587;BME280;5341;47.606;7.576;2024-01-06T02:50:12;97790.72;;;8.84;72.64
10587;BME280;5341;47.606;7.576;2024-01-06T02:52:40;97789.72;;;8.85;72.31
10587;BME280;5341;47.606;7.576;2024-01-06T02:55:08;97799.53;;;8.84;72.38
10587;BME280;5341;47.606;7.576;2024-01-06T02:57:37;97796.88;;;8.84;72.60
10587;BME280;5341;47.606;7.576;2024-01-06T03:00:07;97795.06;;;8.85;72.36
10587;BME280;5341;47.606;7.576;2024-01-06T03:02:35;97795.06;;;8.85;72.84
10587;BME280;5341;47.606;7.576;2024-01-06T03:05:03;97787.06;;;8.85;72.39
10587;BME280;5341;47.606;7.576;2024-01-06T03:07:31;97796.06;;;8.84;72.49
10587;BME280;5341;47.606;7.576;2024-01-06T03:09:59;97794.03;;;8.86;72.60
10587;BME280;5341;47.606;7.576;2024-01-06T03:12:27;97798.34;;;8.87;72.35
10587;BME280;5341;47.606;7.576;2024-01-06T03:14:56;97790.97;;;8.89;72.54
10587;BME280;5341;47.606;7.576;2024-01-06T03:17:24;97788.31;;;8.89;72.76
10587;BME280;5341;47.606;7.576;2024-01-06T03:19:52;97785.44;;;8.90;72.62
10587;BME280;5341;47.606;7.576;2024-01-06T03:22:19;97796.94;;;8.91;72.42
10587;BME280;5341;47.606;7.576;2024-01-06T03:24:47;97794.06;;;8.92;72.56
10587;BME280;5341;47.606;7.576;2024-01-06T03:27:15;97802.06;;;8.92;72.36
10587;BME280;5341;47.606;7.576;2024-01-06T03:29:42;97799.41;;;8.92;72.53
10587;BME280;5341;47.606;7.576;2024-01-06T03:32:11;97793.06;;;8.93;72.58
10587;BME280;5341;47.606;7.576;2024-01-06T03:34:40;97792.84;;;8.95;72.25
10587;BME280;5341;47.606;7.576;2024-01-06T03:37:08;97801.66;;;8.95;72.08
10587;BME280;5341;47.606;7.576;2024-01-06T03:39:36;97793.88;;;8.94;72.70
10587;BME280;5341;47.606;7.576;2024-01-06T03:42:04;97805.34;;;8.94;72.05
10587;BME280;5341;47.606;7.576;2024-01-06T03:44:32;97809.03;;;8.93;72.14
10587;BME280;5341;47.606;7.576;2024-01-06T03:46:59;97804.53;;;8.94;72.19
10587;BME280;5341;47.606;7.576;2024-01-06T03:49:28;97795.91;;;8.92;71.97
10587;BME280;5341;47.606;7.576;2024-01-06T03:51:56;97797.75;;;8.91;72.33
10587;BME280;5341;47.606;7.576;2024-01-06T03:54:24;97788.31;;;8.89;72.18
10587;BME280;5341;47.606;7.576;2024-01-06T03:56:51;97792.19;;;8.86;72.27
10587;BME280;5341;47.606;7.576;2024-01-06T03:59:18;97798.56;;;8.85;72.38
10587;BME280;5341;47.606;7.576;2024-01-06T04:01:46;97797.72;;;8.85;72.39
10587;BME280;5341;47.606;7.576;2024-01-06T04:04:13;97805.91;;;8.83;72.08
10587;BME280;5341;47.606;7.576;2024-01-06T04:06:42;97817.56;;;8.82;72.17
10587;BME280;5341;47.606;7.576;2024-01-06T04:09:10;97811.63;;;8.80;72.47
10587;BME280;5341;47.606;7.576;2024-01-06T04:11:37;97812.44;;;8.80;72.56
10587;BME280;5341;47.606;7.576;2024-01-06T04:14:05;97815.09;;;8.80;72.53
10587;BME280;5341;47.606;7.576;2024-01-06T04:16:32;97810.19;;;8.77;72.49
10587;BME280;5341;47.606;7.576;2024-01-06T04:18:59;97813.66;;;8.78;72.57
10587;BME280;5341;47.606;7.576;2024-01-06T04:21:27;97816.13;;;8.79;72.50
10587;BME280;5341;47.606;7.576;2024-01-06T04:23:56;97812.44;;;8.80;72.63
10587;BME280;5341;47.606;7.576;2024-01-06T04:26:23;97814.28;;;8.80;72.42
10587;BME280;5341;47.606;7.576;2024-01-06T04:28:51;97809.78;;;8.80;72.25
10587;BME280;5341;47.606;7.576;2024-01-06T04:31:19;97810.59;;;8.81;72.46
10587;BME280;5341;47.606;7.576;2024-01-06T04:33:46;97815.94;;;8.81;71.95
10587;BME280;5341;47.606;7.576;2024-01-06T04:36:14;97810.59;;;8.81;72.12
10587;BME280;5341;47.606;7.576;2024-01-06T04:38:42;97808.75;;;8.81;71.96
10587;BME280;5341;47.606;7.576;2024-01-06T04:41:10;97818.41;;;8.82;72.22
10587;BME280;5341;47.606;7.576;2024-01-06T04:43:38;97820.44;;;8.80;72.11
10587;BME280;5341;47.606;7.576;2024-01-06T04:46:05;97828.44;;;8.80;72.21
10587;BME280;5341;47.606;7.576;2024-01-06T04:48:33;97822.47;;;8.78;71.95
10587;BME280;5341;47.606;7.576;2024-01-06T04:51:00;97819.00;;;8.78;72.24
10587;BME280;5341;47.606;7.576;2024-01-06T04:53:29;97825.16;;;8.78;72.03
10587;BME280;5341;47.606;7.576;2024-01-06T04:55:56;97827.00;;;8.78;72.28
10587;BME280;5341;47.606;7.576;2024-01-06T04:58:25;97823.50;;;8.77;71.97
10587;BME280;5341;47.606;7.576;2024-01-06T05:00:53;97823.50;;;8.77;71.64
10587;BME280;5341;47.606;7.576;2024-01-06T05:03:21;97832.53;;;8.76;72.23
10587;BME280;5341;47.606;7.576;2024-01-06T05:05:48;97837.03;;;8.76;72.12
10587;BME280;5341;47.606;7.576;2024-01-06T05:08:16;97838.88;;;8.75;71.88
10587;BME280;5341;47.606;7.576;2024-01-06T05:10:44;97837.03;;;8.76;72.05
10587;BME280;5341;47.606;7.576;2024-01-06T05:13:13;97839.06;;;8.74;72.00
10587;BME280;5341;47.606;7.576;2024-01-06T05:15:42;97847.88;;;8.74;71.75
10587;BME280;5341;47.606;7.576;2024-01-06T05:18:09;97854.03;;;8.75;72.07
10587;BME280;5341;47.606;7.576;2024-01-06T05:20:37;97852.41;;;8.74;71.92
10587;BME280;5341;47.606;7.576;2024-01-06T05:23:06;97858.34;;;8.76;72.07
10587;BME280;5341;47.606;7.576;2024-01-06T05:25:34;97851.56;;;8.73;71.96
10587;BME280;5341;47.606;7.576;2024-01-06T05:28:01;97856.72;;;8.75;72.02
10587;BME280;5341;47.606;7.576;2024-01-06T05:30:30;97851.38;;;8.75;72.00
10587;BME280;5341;47.606;7.576;2024-01-06T05:33:00;97853.22;;;8.74;71.84
10587;BME280;5341;47.606;7.576;2024-01-06T05:35:28;97857.72;;;8.74;71.93
10587;BME280;5341;47.606;7.576;2024-01-06T05:37:56;97863.41;;;8.71;71.94
10587;BME280;5341;47.606;7.576;2024-01-06T05:40:23;97861.56;;;8.71;71.72
10587;BME280;5341;47.606;7.576;2024-01-06T05:42:50;97858.91;;;8.71;71.52
10587;BME280;5341;47.606;7.576;2024-01-06T05:45:21;97864.25;;;8.71;71.88
10587;BME280;5341;47.606;7.576;2024-01-06T05:47:48;97864.44;;;8.70;71.99
10587;BME280;5341;47.606;7.576;2024-01-06T05:50:17;97871.41;;;8.71;71.49
10587;BME280;5341;47.606;7.576;2024-01-06T05:52:45;97870.59;;;8.70;71.89
10587;BME280;5341;47.606;7.576;2024-01-06T05:55:15;97861.56;;;8.71;71.87
10587;BME280;5341;47.606;7.576;2024-01-06T05:57:42;97862.59;;;8.70;71.86
10587;BME280;5341;47.606;7.576;2024-01-06T06:00:11;97868.75;;;8.71;71.46
10587;BME280;5341;47.606;7.576;2024-01-06T06:02:39;97864.44;;;8.70;71.60
10587;BME280;5341;47.606;7.576;2024-01-06T06:05:07;97873.25;;;8.70;71.67
10587;BME280;5341;47.606;7.576;2024-01-06T06:07:37;97879.41;;;8.71;71.34
10587;BME280;5341;47.606;7.576;2024-01-06T06:10:07;97880.44;;;8.70;71.77
10587;BME280;5341;47.606;7.576;2024-01-06T06:12:34;97885.75;;;8.70;71.45
10587;BME280;5341;47.606;7.576;2024-01-06T06:15:03;97891.09;;;8.70;71.14
10587;BME280;5341;47.606;7.576;2024-01-06T06:17:30;97901.75;;;8.70;71.46
10587;BME280;5341;47.606;7.576;2024-01-06T06:19:59;97893.75;;;8.70;71.71
10587;BME280;5341;47.606;7.576;2024-01-06T06:22:26;97906.88;;;8.71;71.79
10587;BME280;5341;47.606;7.576;2024-01-06T06:24:59;97901.56;;;8.71;71.72
10587;BME280;5341;47.606;7.576;2024-01-06T06:27:26;97912.22;;;8.71;71.51
10587;BME280;5341;47.606;7.576;2024-01-06T06:29:54;97911.22;;;8.72;71.64
10587;BME280;5341;47.606;7.576;2024-01-06T06:32:23;97913.91;;;8.72;71.58
10587;BME280;5341;47.606;7.576;2024-01-06T06:34:50;97918.38;;;8.72;71.63
10587;BME280;5341;47.606;7.576;2024-01-06T06:37:18;97913.03;;;8.72;71.94
10587;BME280;5341;47.606;7.576;2024-01-06T06:39:46;97914.06;;;8.71;71.89
10587;BME280;5341;47.606;7.576;2024-01-06T06:42:15;97914.72;;;8.73;71.58
10587;BME280;5341;47.606;7.576;2024-01-06T06:44:42;97913.03;;;8.72;71.75
10587;BME280;5341;47.606;7.576;2024-01-06T06:47:09;97919.22;;;8.72;71.39
10587;BME280;5341;47.606;7.576;2024-01-06T06:49:37;97922.88;;;8.71;71.68
10587;BME280;5341;47.606;7.576;2024-01-06T06:52:05;97920.22;;;8.71;71.61
10587;BME280;5341;47.606;7.576;2024-01-06T06:54:33;97922.88;;;8.71;71.78
10587;BME280;5341;47.606;7.576;2024-01-06T06:57:00;97930.88;;;8.71;71.62
10587;BME280;5341;47.606;7.576;2024-01-06T06:59:35;97923.91;;;8.70;71.68
10587;BME280;5341;47.606;7.576;2024-01-06T07:02:02;97924.91;;;8.69;71.69
10587;BME280;5341;47.606;7.576;2024-01-06T07:04:30;97935.78;;;8.68;71.32
10587;BME280;5341;47.606;7.576;2024-01-06T07:06:57;97934.75;;;8.69;71.46
10587;BME280;5341;47.606;7.576;2024-01-06T07:09:25;97939.25;;;8.68;71.27
10587;BME280;5341;47.606;7.576;2024-01-06T07:11:53;97935.78;;;8.68;71.17
10587;BME280;5341;47.606;7.576;2024-01-06T07:14:20;97940.28;;;8.67;71.51
10587;BME280;5341;47.606;7.576;2024-01-06T07:16:49;97944.97;;;8.65;71.04
10587;BME280;5341;47.606;7.576;2024-01-06T07:19:17;97953.16;;;8.64;71.47
10587;BME280;5341;47.606;7.576;2024-01-06T07:21:44;97950.50;;;8.64;71.55
10587;BME280;5341;47.606;7.576;2024-01-06T07:24:12;97950.69;;;8.62;71.44
10587;BME280;5341;47.606;7.576;2024-01-06T07:26:40;97948.84;;;8.63;71.60
10587;BME280;5341;47.606;7.576;2024-01-06T07:29:07;97953.34;;;8.62;71.39
10587;BME280;5341;47.606;7.576;2024-01-06T07:31:35;97949.88;;;8.62;71.28
10587;BME280;5341;47.606;7.576;2024-01-06T07:34:04;97950.06;;;8.60;71.49
10587;BME280;5341;47.606;7.576;2024-01-06T07:36:31;97956.03;;;8.62;71.46
10587;BME280;5341;47.606;7.576;2024-01-06T07:38:59;97957.88;;;8.62;71.20
10587;BME280;5341;47.606;7.576;2024-01-06T07:41:26;97951.72;;;8.61;71.73
10587;BME280;5341;47.606;7.576;2024-01-06T07:43:56;97952.53;;;8.62;71.02
10587;BME280;5341;47.606;7.576;2024-01-06T07:46:23;97951.50;;;8.63;71.10
10587;BME280;5341;47.606;7.576;2024-01-06T07:48:51;97954.19;;;8.63;71.22
10587;BME280;5341;47.606;7.576;2024-01-06T07:51:20;97957.66;;;8.63;71.15
10587;BME280;5341;47.606;7.576;2024-01-06T07:53:47;97956.03;;;8.62;71.71
10587;BME280;5341;47.606;7.576;2024-01-06T07:56:15;97956.66;;;8.64;71.32
10587;BME280;5341;47.606;7.576;2024-01-06T07:58:43;97956.66;;;8.64;71.70
10587;BME280;5341;47.606;7.576;2024-01-06T08:01:10;97953.16;;;8.64;71.43
10587;BME280;5341;47.606;7.576;2024-01-06T08:03:39;97963.63;;;8.65;71.54
10587;BME280;5341;47.606;7.576;2024-01-06T08:06:06;97960.97;;;8.65;71.57
10587;BME280;5341;47.606;7.576;2024-01-06T08:08:35;97964.44;;;8.66;71.46
10587;BME280;5341;47.606;7.576;2024-01-06T08:11:03;97969.78;;;8.66;71.27
10587;BME280;5341;47.606;7.576;2024-01-06T08:13:30;97971.44;;;8.67;71.55
10587;BME280;5341;47.606;7.576;2024-01-06T08:15:58;97976.75;;;8.67;71.61
10587;BME280;5341;47.606;7.576;2024-01-06T08:18:26;97973.91;;;8.68;71.42
10587;BME280;5341;47.606;7.576;2024-01-06T08:20:54;97988.06;;;8.69;71.80
10587;BME280;5341;47.606;7.576;2024-01-06T08:23:21;97989.69;;;8.70;71.89
10587;BME280;5341;47.606;7.576;2024-01-06T08:25:50;97992.19;;;8.71;71.63
10587;BME280;5341;47.606;7.576;2024-01-06T08:28:18;97999.34;;;8.71;71.86
10587;BME280;5341;47.606;7.576;2024-01-06T08:30:47;97996.69;;;8.71;71.42
10587;BME280;5341;47.606;7.576;2024-01-06T08:33:15;98006.53;;;8.70;71.61
10587;BME280;5341;47.606;7.576;2024-01-06T08:35:43;98010.84;;;8.71;71.28
10587;BME280;5341;47.606;7.576;2024-01-06T08:38:11;98019.03;;;8.70;71.31
10587;BME280;5341;47.606;7.576;2024-01-06T08:40:39;98015.34;;;8.71;71.34
10587;BME280;5341;47.606;7.576;2024-01-06T08:43:09;98019.84;;;8.70;71.22
10587;BME280;5341;47.606;7.576;2024-01-06T08:45:36;98028.66;;;8.71;71.33
10587;BME280;5341;47.606;7.576;2024-01-06T08:48:04;98024.16;;;8.71;71.49
10587;BME280;5341;47.606;7.576;2024-01-06T08:50:32;98022.31;;;8.72;71.31
10587;BME280;5341;47.606;7.576;2024-01-06T08:53:00;98024.00;;;8.73;71.52
10587;BME280;5341;47.606;7.576;2024-01-06T08:55:27;98016.63;;;8.75;71.43
10587;BME280;5341;47.606;7.576;2024-01-06T08:57:55;98019.94;;;8.77;71.61
10587;BME280;5341;47.606;7.576;2024-01-06T09:00:24;98029.38;;;8.79;71.71
10587;BME280;5341;47.606;7.576;2024-01-06T09:02:51;98031.22;;;8.79;71.73
10587;BME280;5341;47.606;7.576;2024-01-06T09:05:19;98031.03;;;8.80;71.43
10587;BME280;5341;47.606;7.576;2024-01-06T09:07:47;98035.34;;;8.81;71.52
10587;BME280;5341;47.606;7.576;2024-01-06T09:10:16;98033.50;;;8.82;71.52
10587;BME280;5341;47.606;7.576;2024-01-06T09:12:44;98034.34;;;8.82;71.36
10587;BME280;5341;47.606;7.576;2024-01-06T09:15:11;98035.16;;;8.83;71.35
10587;BME280;5341;47.606;7.576;2024-01-06T09:17:40;98031.47;;;8.84;71.19
10587;BME280;5341;47.606;7.576;2024-01-06T09:20:08;98031.47;;;8.84;71.58
10587;BME280;5341;47.606;7.576;2024-01-06T09:22:36;98030.66;;;8.84;71.14
10587;BME280;5341;47.606;7.576;2024-01-06T09:25:05;98034.81;;;8.86;71.57
10587;BME280;5341;47.606;7.576;2024-01-06T09:27:32;98032.13;;;8.86;71.48
10587;BME280;5341;47.606;7.576;2024-01-06T09:30:00;98040.13;;;8.86;71.24
10587;BME280;5341;47.606;7.576;2024-01-06T09:32:27;98027.97;;;8.84;71.39
10587;BME280;5341;47.606;7.576;2024-01-06T09:34:56;98040.50;;;8.83;71.15
10587;BME280;5341;47.606;7.576;2024-01-06T09:37:24;98030.50;;;8.85;71.44
10587;BME280;5341;47.606;7.576;2024-01-06T09:39:51;98034.81;;;8.86;71.29
10587;BME280;5341;47.606;7.576;2024-01-06T09:42:18;98045.28;;;8.88;71.34
10587;BME280;5341;47.606;7.576;2024-01-06T09:44:46;98038.94;;;8.89;71.10
10587;BME280;5341;47.606;7.576;2024-01-06T09:47:16;98040.56;;;8.90;71.05
10587;BME280;5341;47.606;7.576;2024-01-06T09:49:49;98044.69;;;8.92;70.95
10587;BME280;5341;47.606;7.576;2024-01-06T09:52:21;98047.16;;;8.94;71.02
10587;BME280;5341;47.606;7.576;2024-01-06T09:54:52;98056.00;;;8.94;71.28
10587;BME280;5341;47.606;7.576;2024-01-06T09:57:20;98049.47;;;8.97;71.17
10587;BME280;5341;47.606;7.576;2024-01-06T09:59:48;98053.59;;;8.99;71.41
10587;BME280;5341;47.606;7.576;2024-01-06T10:02:16;98064.06;;;9.01;71.37
10587;BME280;5341;47.606;7.576;2024-01-06T10:04:44;98056.91;;;9.01;71.20
10587;BME280;5341;47.606;7.576;2024-01-06T10:07:12;98059.56;;;9.01;70.92
10587;BME280;5341;47.606;7.576;2024-01-06T10:09:41;98057.53;;;9.03;70.82
10587;BME280;5341;47.606;7.576;2024-01-06T10:12:09;98066.16;;;9.05;71.19
10587;BME280;5341;47.606;7.576;2024-01-06T10:14:37;98057.97;;;9.07;70.50
10587;BME280;5341;47.606;7.576;2024-01-06T10:17:06;98057.78;;;9.08;70.91
10587;BME280;5341;47.606;7.576;2024-01-06T10:19:34;98058.44;;;9.10;70.92
10587;BME280;5341;47.606;7.576;2024-01-06T10:22:02;98052.09;;;9.12;70.95
10587;BME280;5341;47.606;7.576;2024-01-06T10:24:30;98060.91;;;9.12;70.70
10587;BME280;5341;47.606;7.576;2024-01-06T10:26:59;98047.38;;;9.14;70.49
10587;BME280;5341;47.606;7.576;2024-01-06T10:29:27;98053.34;;;9.16;70.66
10587;BME280;5341;47.606;7.576;2024-01-06T10:31:54;98051.50;;;9.16;70.48
10587;BME280;5341;47.606;7.576;2024-01-06T10:34:22;98054.81;;;9.18;70.52
10587;BME280;5341;47.606;7.576;2024-01-06T10:36:51;98052.97;;;9.19;70.23
10587;BME280;5341;47.606;7.576;2024-01-06T10:39:19;98048.44;;;9.19;70.05
10587;BME280;5341;47.606;7.576;2024-01-06T10:41:49;98055.44;;;9.20;70.28
10587;BME280;5341;47.606;7.576;2024-01-06T10:44:19;98048.09;;;9.22;70.36
10587;BME280;5341;47.606;7.576;2024-01-06T10:46:48;98054.06;;;9.24;70.42
10587;BME280;5341;47.606;7.576;2024-01-06T10:49:20;98040.50;;;9.26;70.35
10587;BME280;5341;47.606;7.576;2024-01-06T10:51:48;98044.41;;;9.23;70.26
10587;BME280;5341;47.606;7.576;2024-01-06T10:54:17;98048.28;;;9.21;69.92
10587;BME280;5341;47.606;7.576;2024-01-06T10:56:46;98045.97;;;9.18;69.79
10587;BME280;5341;47.606;7.576;2024-01-06T10:59:16;98043.94;;;9.20;69.81
10587;BME280;5341;47.606;7.576;2024-01-06T11:01:45;98051.78;;;9.21;69.90
10587;BME280;5341;47.606;7.576;2024-01-06T11:04:14;98052.41;;;9.23;69.99
10587;BME280;5341;47.606;7.576;2024-01-06T11:06:42;98054.88;;;9.25;70.21
10587;BME280;5341;47.606;7.576;2024-01-06T11:09:14;98051.81;;;9.28;70.33
10587;BME280;5341;47.606;7.576;2024-01-06T11:11:44;98046.47;;;9.28;69.77
10587;BME280;5341;47.606;7.576;2024-01-06T11:14:18;98049.78;;;9.30;70.19
10587;BME280;5341;47.606;7.576;2024-01-06T11:16:48;98045.28;;;9.30;69.97
10587;BME280;5341;47.606;7.576;2024-01-06T11:19:44;98039.72;;;9.32;69.74
10587;BME280;5341;47.606;7.576;2024-01-06T11:22:34;98043.22;;;9.32;69.69
10587;BME280;5341;47.606;7.576;2024-01-06T11:25:07;98046.75;;;9.33;70.13
10587;BME280;5341;47.606;7.576;2024-01-06T11:27:36;98045.53;;;9.35;69.81
10587;BME280;5341;47.606;7.576;2024-01-06T11:30:05;98037.34;;;9.37;69.61
10587;BME280;5341;47.606;7.576;2024-01-06T11:32:35;98041.47;;;9.39;69.69
10587;BME280;5341;47.606;7.576;2024-01-06T11:35:09;98040.25;;;9.42;69.57
10587;BME280;5341;47.606;7.576;2024-01-06T11:37:50;98044.56;;;9.43;69.57
10587;BME280;5341;47.606;7.576;2024-01-06T11:40:23;98037.38;;;9.44;69.36
10587;BME280;5341;47.606;7.576;2024-01-06T11:42:57;98038.41;;;9.43;69.33
10587;BME280;5341;47.606;7.576;2024-01-06T11:45:25;98039.41;;;9.42;69.47
10587;BME280;5341;47.606;7.576;2024-01-06T11:47:57;98036.13;;;9.39;68.98
10587;BME280;5341;47.606;7.576;2024-01-06T11:50:24;98035.69;;;9.36;69.51
10587;BME280;5341;47.606;7.576;2024-01-06T11:52:52;98028.69;;;9.35;69.20
10587;BME280;5341;47.606;7.576;2024-01-06T11:55:20;98020.69;;;9.35;69.29
10587;BME280;5341;47.606;7.576;2024-01-06T11:57:47;98019.06;;;9.34;69.32
10587;BME280;5341;47.606;7.576;2024-01-06T12:00:16;98022.53;;;9.34;69.30
10587;BME280;5341;47.606;7.576;2024-01-06T12:02:44;98017.22;;;9.34;69.55
10587;BME280;5341;47.606;7.576;2024-01-06T12:05:18;98017.22;;;9.34;69.29
10587;BME280;5341;47.606;7.576;2024-01-06T12:07:53;98012.06;;;9.33;69.05
10587;BME280;5341;47.606;7.576;2024-01-06T12:10:22;98014.06;;;9.31;69.08
10587;BME280;5341;47.606;7.576;2024-01-06T12:12:57;98013.66;;;9.27;69.10
10587;BME280;5341;47.606;7.576;2024-01-06T12:15:26;98017.72;;;9.23;68.98
10587;BME280;5341;47.606;7.576;2024-01-06T12:17:53;98008.06;;;9.22;68.94
10587;BME280;5341;47.606;7.576;2024-01-06T12:20:25;98012.19;;;9.25;69.36
10587;BME280;5341;47.606;7.576;2024-01-06T12:22:54;98017.13;;;9.28;69.83
10587;BME280;5341;47.606;7.576;2024-01-06T12:25:23;98010.78;;;9.29;69.45
10587;BME280;5341;47.606;7.576;2024-01-06T12:27:52;98010.38;;;9.32;69.46
10587;BME280;5341;47.606;7.576;2024-01-06T12:30:21;98012.91;;;9.33;69.08
10587;BME280;5341;47.606;7.576;2024-01-06T12:32:50;98007.56;;;9.33;69.34
10587;BME280;5341;47.606;7.576;2024-01-06T12:35:19;98008.19;;;9.35;69.00
10587;BME280;5341;47.606;7.576;2024-01-06T12:37:49;97999.97;;;9.37;69.14
10587;BME280;5341;47.606;7.576;2024-01-06T12:40:16;98001.44;;;9.39;68.95
10587;BME280;5341;47.606;7.576;2024-01-06T12:42:45;98009.88;;;9.43;69.16
10587;BME280;5341;47.606;7.576;2024-01-06T12:45:13;98006.00;;;9.46;69.35
10587;BME280;5341;47.606;7.576;2024-01-06T12:47:41;98008.28;;;9.49;69.26
10587;BME280;5341;47.606;7.576;2024-01-06T12:50:09;98010.75;;;9.50;69.13
10587;BME280;5341;47.606;7.576;2024-01-06T12:52:37;98004.41;;;9.51;68.83
10587;BME280;5341;47.606;7.576;2024-01-06T12:55:07;98004.59;;;9.50;69.03
10587;BME280;5341;47.606;7.576;2024-01-06T12:57:35;98005.63;;;9.49;69.13
10587;BME280;5341;47.606;7.576;2024-01-06T13:00:04;98004.41;;;9.51;69.32
10587;BME280;5341;47.606;7.576;2024-01-06T13:02:34;98008.09;;;9.50;68.73
10587;BME280;5341;47.606;7.576;2024-01-06T13:05:01;98012.59;;;9.50;68.84
10587;BME280;5341;47.606;7.576;2024-01-06T13:07:30;98010.75;;;9.50;68.75
10587;BME280;5341;47.606;7.576;2024-01-06T13:09:57;98009.09;;;9.49;69.25
10587;BME280;5341;47.606;7.576;2024-01-06T13:12:27;98012.81;;;9.48;69.20
10587;BME280;5341;47.606;7.576;2024-01-06T13:14:55;98015.47;;;9.48;69.29
10587;BME280;5341;47.606;7.576;2024-01-06T13:17:23;98005.63;;;9.49;69.14
10587;BME280;5341;47.606;7.576;2024-01-06T13:19:50;98009.94;;;9.50;69.27
10587;BME280;5341;47.606;7.576;2024-01-06T13:22:18;98011.78;;;9.49;69.16
10587;BME280;5341;47.606;7.576;2024-01-06T13:24:47;98010.94;;;9.49;69.50
10587;BME280;5341;47.606;7.576;2024-01-06T13:27:15;98008.47;;;9.47;68.71
10587;BME280;5341;47.606;7.576;2024-01-06T13:29:44;98014.00;;;9.46;69.21